Time;durP1;ratioP1;P1;durP2;ratioP2;P2;SDS_P1;SDS_P2;PMS_P1;PMS_P2;Temp;Humidity;BMP_temperature;BMP_pressure;BME280_temperature;BME280_humidity;BME280_pressure;Samples;Min_cycle;Max_cycle;Signal;HPM_P1;HPM_P2
2023/02/05 00:00:19;;;;;;;15.43;10.70;;;;;;;;;;5094520;28;20226;-79
2023/02/05 00:02:46;;;;;;;11.43;9.47;;;;;;;;;;5093937;28;20216;-79
2023/02/05 00:05:13;;;;;;;10.97;8.83;;;;;;;;;;5094419;28;20227;-80
2023/02/05 00:07:40;;;;;;;12.37;8.23;;;;;;;;;;5094519;28;20279;-79
2023/02/05 00:10:09;;;;;;;13.67;8.97;;;;;;;;;;5094410;28;20229;-80
2023/02/05 00:12:37;;;;;;;11.00;8.07;;;;;;;;;;5093815;28;20240;-79
2023/02/05 00:15:05;;;;;;;11.70;8.30;;;;;;;;;;5094138;28;20194;-79
2023/02/05 00:17:32;;;;;;;13.80;7.70;;;;;;;;;;5093838;28;20298;-79
2023/02/05 00:19:59;;;;;;;10.67;7.53;;;;;;;;;;5094515;28;20750;-79
2023/02/05 00:22:26;;;;;;;10.73;7.90;;;;;;;;;;5093938;28;20285;-80
2023/02/05 00:24:54;;;;;;;11.20;8.90;;;;;;;;;;5094371;28;20236;-79
2023/02/05 00:27:22;;;;;;;12.00;8.53;;;;;;;;;;5093640;28;20257;-79
2023/02/05 00:29:50;;;;;;;10.83;8.57;;;;;;;;;;5093759;28;20291;-79
2023/02/05 00:32:17;;;;;;;11.13;7.80;;;;;;;;;;5093648;28;20227;-79
2023/02/05 00:34:44;;;;;;;12.80;8.10;;;;;;;;;;5093790;28;20728;-79
2023/02/05 00:37:12;;;;;;;10.37;8.37;;;;;;;;;;5093637;28;20285;-78
2023/02/05 00:39:39;;;;;;;12.00;8.17;;;;;;;;;;5093489;28;20677;-79
2023/02/05 00:42:06;;;;;;;13.47;8.43;;;;;;;;;;5093309;28;20222;-79
2023/02/05 00:44:35;;;;;;;11.97;8.70;;;;;;;;;;5092829;28;20319;-79
2023/02/05 00:47:02;;;;;;;14.93;9.07;;;;;;;;;;5093824;28;20285;-79
2023/02/05 00:49:30;;;;;;;13.27;9.37;;;;;;;;;;5093588;28;20267;-80
2023/02/05 00:51:57;;;;;;;14.53;9.50;;;;;;;;;;5093374;28;20293;-79
2023/02/05 00:54:24;;;;;;;13.23;9.67;;;;;;;;;;5092737;28;20285;-79
2023/02/05 00:56:52;;;;;;;17.80;10.23;;;;;;;;;;5093382;28;20289;-79
2023/02/05 00:59:19;;;;;;;15.77;9.87;;;;;;;;;;5092462;28;20289;-79
2023/02/05 01:01:47;;;;;;;13.37;9.43;;;;;;;;;;5093183;28;20646;-79
2023/02/05 01:04:15;;;;;;;15.00;10.17;;;;;;;;;;5092542;28;20315;-79
2023/02/05 01:06:42;;;;;;;13.67;10.00;;;;;;;;;;5092759;28;20647;-79
2023/02/05 01:09:09;;;;;;;13.07;9.80;;;;;;;;;;5092930;28;20297;-79
2023/02/05 01:11:36;;;;;;;13.57;9.60;;;;;;;;;;5093042;28;20648;-79
2023/02/05 01:14:03;;;;;;;16.20;9.40;;;;;;;;;;5092570;28;20221;-79
2023/02/05 01:16:31;;;;;;;14.83;9.60;;;;;;;;;;5093054;28;20285;-79
2023/02/05 01:18:59;;;;;;;16.87;9.40;;;;;;;;;;5092884;28;20289;-79
2023/02/05 01:21:26;;;;;;;11.10;9.20;;;;;;;;;;5092764;28;20289;-79
2023/02/05 01:23:54;;;;;;;14.77;10.03;;;;;;;;;;5092126;28;20261;-80
2023/02/05 01:26:21;;;;;;;13.17;9.90;;;;;;;;;;5092256;28;20335;-79
2023/02/05 01:28:48;;;;;;;14.47;10.93;;;;;;;;;;5092465;28;20300;-78
2023/02/05 01:31:15;;;;;;;18.03;11.50;;;;;;;;;;5092954;28;20199;-79
2023/02/05 01:33:43;;;;;;;16.07;11.90;;;;;;;;;;5092361;28;20549;-79
2023/02/05 01:36:11;;;;;;;19.53;12.07;;;;;;;;;;5092781;28;20221;-78
2023/02/05 01:38:38;;;;;;;20.20;12.27;;;;;;;;;;5091643;28;20286;-79
2023/02/05 01:41:08;;;;;;;17.80;12.27;;;;;;;;;;5092255;28;20226;-79
2023/02/05 01:43:35;;;;;;;16.67;11.63;;;;;;;;;;5091770;28;20686;-78
2023/02/05 01:46:07;;;;;;;15.23;11.97;;;;;;;;;;5092628;28;20241;-79
2023/02/05 01:48:36;;;;;;;18.63;12.80;;;;;;;;;;5092009;28;20691;-79
2023/02/05 01:51:05;;;;;;;16.53;12.33;;;;;;;;;;5092296;28;20297;-79
2023/02/05 01:53:35;;;;;;;18.33;12.43;;;;;;;;;;5092106;28;20233;-80
2023/02/05 01:56:05;;;;;;;16.87;11.73;;;;;;;;;;5091751;28;20203;-80
2023/02/05 01:58:34;;;;;;;17.27;12.03;;;;;;;;;;5092139;28;20228;-78
2023/02/05 02:01:01;;;;;;;17.73;11.50;;;;;;;;;;5092050;28;20295;-80
2023/02/05 02:03:31;;;;;;;18.43;11.43;;;;;;;;;;5091688;28;20293;-80
2023/02/05 02:05:59;;;;;;;13.93;10.97;;;;;;;;;;5091037;28;20226;-79
2023/02/05 02:08:26;;;;;;;14.40;11.17;;;;;;;;;;5091962;28;20190;-80
2023/02/05 02:10:57;;;;;;;17.53;11.47;;;;;;;;;;5091426;28;20318;-79
2023/02/05 02:13:26;;;;;;;16.87;10.87;;;;;;;;;;5091532;28;20233;-79
2023/02/05 02:15:53;;;;;;;18.93;12.13;;;;;;;;;;5091621;28;20285;-79
2023/02/05 02:18:27;;;;;;;16.00;11.67;;;;;;;;;;5092040;28;20687;-79
2023/02/05 02:21:02;;;;;;;15.67;10.23;;;;;;;;;;5091470;28;20712;-79
2023/02/05 02:23:36;;;;;;;16.27;9.60;;;;;;;;;;5091622;28;20689;-79
2023/02/05 02:26:12;;;;;;;15.17;9.83;;;;;;;;;;5089743;28;20293;-79
2023/02/05 02:28:43;;;;;;;12.53;9.50;;;;;;;;;;5082217;28;20297;-80
2023/02/05 02:31:12;;;;;;;16.33;9.40;;;;;;;;;;5075391;28;20223;-80
2023/02/05 02:33:42;;;;;;;12.13;9.50;;;;;;;;;;5091658;28;20663;-79
2023/02/05 02:36:10;;;;;;;13.17;9.70;;;;;;;;;;5091676;28;20226;-79
2023/02/05 02:38:40;;;;;;;13.27;9.23;;;;;;;;;;5091121;28;20230;-79
2023/02/05 02:41:09;;;;;;;15.93;10.53;;;;;;;;;;5091121;28;20230;-79
2023/02/05 02:43:40;;;;;;;17.57;9.43;;;;;;;;;;5091607;28;20218;-79
2023/02/05 02:46:10;;;;;;;13.10;9.47;;;;;;;;;;5091230;28;20226;-79
2023/02/05 02:48:39;;;;;;;14.73;9.90;;;;;;;;;;5091366;28;20230;-80
2023/02/05 02:51:08;;;;;;;14.33;9.20;;;;;;;;;;5091252;28;20225;-79
2023/02/05 02:53:37;;;;;;;11.27;9.07;;;;;;;;;;5091216;28;20659;-79
2023/02/05 02:56:05;;;;;;;12.47;8.30;;;;;;;;;;5090835;28;20654;-79
2023/02/05 02:58:35;;;;;;;13.67;9.27;;;;;;;;;;5091203;28;20195;-79
2023/02/05 03:01:04;;;;;;;12.53;9.13;;;;;;;;;;5091012;28;20280;-79
2023/02/05 03:03:33;;;;;;;13.67;9.17;;;;;;;;;;5090937;28;20293;-80
2023/02/05 03:06:02;;;;;;;13.50;9.47;;;;;;;;;;5091203;28;20769;-79
2023/02/05 03:08:31;;;;;;;13.97;9.43;;;;;;;;;;5090703;28;20670;-80
2023/02/05 03:11:00;;;;;;;15.67;10.00;;;;;;;;;;5090856;28;20231;-80
2023/02/05 03:13:27;;;;;;;12.37;9.63;;;;;;;;;;5091314;28;20285;-79
2023/02/05 03:15:54;;;;;;;17.17;10.90;;;;;;;;;;5091762;28;20289;-79
2023/02/05 03:18:22;;;;;;;16.93;11.10;;;;;;;;;;5094732;28;20301;-79
2023/02/05 03:20:52;;;;;;;14.90;10.53;;;;;;;;;;5095059;28;20281;-79
2023/02/05 03:23:19;;;;;;;14.50;9.90;;;;;;;;;;5095277;28;20222;-79
2023/02/05 03:25:47;;;;;;;15.27;9.67;;;;;;;;;;5094253;28;20324;-79
2023/02/05 03:28:14;;;;;;;14.40;9.63;;;;;;;;;;5095029;28;20679;-79
2023/02/05 03:30:49;;;;;;;14.13;10.57;;;;;;;;;;5095088;28;20299;-79
2023/02/05 03:33:23;;;;;;;15.73;10.20;;;;;;;;;;5094370;28;20655;-80
2023/02/05 03:35:57;;;;;;;12.93;10.03;;;;;;;;;;5094409;28;20285;-80
2023/02/05 03:38:29;;;;;;;15.60;9.73;;;;;;;;;;5094297;28;20281;-79
2023/02/05 03:40:59;;;;;;;14.43;9.93;;;;;;;;;;5094441;28;20289;-79
2023/02/05 03:43:33;;;;;;;16.60;10.47;;;;;;;;;;5094912;28;20225;-80
2023/02/05 03:46:02;;;;;;;14.83;10.30;;;;;;;;;;5094807;28;20342;-79
2023/02/05 03:48:33;;;;;;;14.73;9.83;;;;;;;;;;5094446;28;20286;-79
2023/02/05 03:51:06;;;;;;;14.87;10.47;;;;;;;;;;5094464;28;20281;-80
2023/02/05 03:53:36;;;;;;;15.57;11.03;;;;;;;;;;5094441;28;20229;-80
2023/02/05 03:56:05;;;;;;;15.97;11.00;;;;;;;;;;5094343;28;20298;-79
2023/02/05 03:58:35;;;;;;;14.80;10.10;;;;;;;;;;5094279;28;20674;-79
2023/02/05 04:01:03;;;;;;;17.00;11.20;;;;;;;;;;5094103;28;20281;-79
2023/02/05 04:03:30;;;;;;;16.43;10.63;;;;;;;;;;5094015;28;20237;-79
2023/02/05 04:05:57;;;;;;;17.60;11.13;;;;;;;;;;5093733;28;20317;-79
2023/02/05 04:08:25;;;;;;;33.93;23.83;;;;;;;;;;5094053;28;20290;-79
2023/02/05 04:10:53;;;;;;;34.23;24.57;;;;;;;;;;5094103;28;20280;-80
2023/02/05 04:13:20;;;;;;;17.50;12.30;;;;;;;;;;5094096;28;20230;-79
2023/02/05 04:15:48;;;;;;;18.43;11.03;;;;;;;;;;5094175;28;20293;-79
2023/02/05 04:18:16;;;;;;;17.37;10.93;;;;;;;;;;5094012;28;20220;-79
2023/02/05 04:20:43;;;;;;;14.83;10.70;;;;;;;;;;5094129;28;20204;-80
2023/02/05 04:23:10;;;;;;;18.70;12.10;;;;;;;;;;5093636;28;20627;-79
2023/02/05 04:25:39;;;;;;;20.57;12.60;;;;;;;;;;5094011;28;20325;-79
2023/02/05 04:28:08;;;;;;;18.50;11.67;;;;;;;;;;5092323;28;20684;-80
2023/02/05 04:30:35;;;;;;;17.33;10.70;;;;;;;;;;5093709;28;20544;-78
2023/02/05 04:33:02;;;;;;;14.93;10.53;;;;;;;;;;5093539;28;20226;-79
2023/02/05 04:35:29;;;;;;;14.87;9.90;;;;;;;;;;5093978;28;20261;-79
2023/02/05 04:37:56;;;;;;;14.00;9.80;;;;;;;;;;5093418;28;20230;-79
2023/02/05 04:40:24;;;;;;;14.47;10.13;;;;;;;;;;5093658;28;20286;-78
2023/02/05 04:42:52;;;;;;;14.57;10.07;;;;;;;;;;5093149;28;20233;-79
2023/02/05 04:45:19;;;;;;;17.00;11.07;;;;;;;;;;5093320;28;20223;-79
2023/02/05 04:47:47;;;;;;;18.67;10.50;;;;;;;;;;5093141;28;20279;-79
2023/02/05 04:50:14;;;;;;;17.17;10.70;;;;;;;;;;5093359;28;20726;-79
2023/02/05 04:52:41;;;;;;;15.37;9.70;;;;;;;;;;5092798;28;20276;-79
2023/02/05 04:55:08;;;;;;;16.73;10.87;;;;;;;;;;5093274;28;20746;-78
2023/02/05 04:57:36;;;;;;;16.10;10.40;;;;;;;;;;5093559;28;20689;-79
2023/02/05 05:00:04;;;;;;;14.27;9.70;;;;;;;;;;5093173;28;20659;-79
2023/02/05 05:02:32;;;;;;;17.83;11.33;;;;;;;;;;5092971;28;20285;-79
2023/02/05 05:04:59;;;;;;;16.73;10.23;;;;;;;;;;5092901;28;20313;-79
2023/02/05 05:07:26;;;;;;;15.57;10.27;;;;;;;;;;5092437;28;20222;-79
2023/02/05 05:09:53;;;;;;;17.07;10.87;;;;;;;;;;5092918;28;20289;-79
2023/02/05 05:12:20;;;;;;;16.43;10.87;;;;;;;;;;5093063;28;20290;-80
2023/02/05 05:14:48;;;;;;;16.83;10.73;;;;;;;;;;5092805;28;20643;-79
2023/02/05 05:17:16;;;;;;;18.87;11.33;;;;;;;;;;5092686;28;20226;-79
2023/02/05 05:19:43;;;;;;;20.50;11.37;;;;;;;;;;5092428;28;20290;-78
2023/02/05 05:22:10;;;;;;;19.70;11.40;;;;;;;;;;5092960;28;20277;-79
2023/02/05 05:24:38;;;;;;;18.07;10.70;;;;;;;;;;5092505;28;20230;-80
2023/02/05 05:27:05;;;;;;;15.77;10.50;;;;;;;;;;5092419;28;20732;-79
2023/02/05 05:29:32;;;;;;;14.77;10.23;;;;;;;;;;5092875;28;20734;-79
2023/02/05 05:31:59;;;;;;;18.23;10.67;;;;;;;;;;5092720;28;20357;-79
2023/02/05 05:34:28;;;;;;;18.00;10.67;;;;;;;;;;5092201;28;20228;-79
2023/02/05 05:36:55;;;;;;;16.93;10.43;;;;;;;;;;5092678;28;20226;-79
2023/02/05 05:44:52;;;;;;;19.33;11.47;;;;;;;;;;5092177;28;20233;-79
2023/02/05 05:47:19;;;;;;;22.10;13.83;;;;;;;;;;5092783;28;20293;-79
2023/02/05 05:49:48;;;;;;;21.97;14.93;;;;;;;;;;5092042;28;20277;-79
2023/02/05 05:52:15;;;;;;;19.33;14.20;;;;;;;;;;5092342;28;20222;-78
2023/02/05 05:54:43;;;;;;;15.73;11.73;;;;;;;;;;5092547;28;20296;-79
2023/02/05 05:57:10;;;;;;;18.50;11.73;;;;;;;;;;5092361;28;20285;-77
2023/02/05 05:59:37;;;;;;;17.70;10.80;;;;;;;;;;5091807;28;20677;-78
2023/02/05 06:02:04;;;;;;;22.50;11.00;;;;;;;;;;5091485;28;20250;-79
2023/02/05 06:04:31;;;;;;;18.47;10.30;;;;;;;;;;5091851;28;20286;-79
2023/02/05 06:07:01;;;;;;;19.27;10.97;;;;;;;;;;5091795;28;20222;-79
2023/02/05 06:09:28;;;;;;;19.60;11.33;;;;;;;;;;5092121;28;20195;-79
2023/02/05 06:11:55;;;;;;;17.97;11.43;;;;;;;;;;5091760;28;20229;-79
2023/02/05 06:14:22;;;;;;;16.77;11.97;;;;;;;;;;5091957;28;20289;-78
2023/02/05 06:16:50;;;;;;;18.57;12.73;;;;;;;;;;5091962;28;20202;-79
2023/02/05 06:19:18;;;;;;;16.00;9.97;;;;;;;;;;5091408;28;20190;-79
2023/02/05 06:21:45;;;;;;;19.70;10.97;;;;;;;;;;5092178;28;20221;-79
2023/02/05 06:24:13;;;;;;;16.13;10.20;;;;;;;;;;5092030;28;20281;-79
2023/02/05 06:26:40;;;;;;;17.97;11.23;;;;;;;;;;5091461;28;20234;-79
2023/02/05 06:29:08;;;;;;;20.50;10.70;;;;;;;;;;5091874;28;20282;-78
2023/02/05 06:31:35;;;;;;;16.13;11.00;;;;;;;;;;5091580;28;20196;-78
2023/02/05 06:34:02;;;;;;;13.83;9.97;;;;;;;;;;5091649;28;20275;-80
2023/02/05 06:36:29;;;;;;;15.87;10.17;;;;;;;;;;5091354;28;20294;-81
2023/02/05 06:38:56;;;;;;;16.73;10.67;;;;;;;;;;5091613;28;20289;-80
2023/02/05 06:41:25;;;;;;;16.33;10.17;;;;;;;;;;5091421;28;20230;-80
2023/02/05 06:43:52;;;;;;;18.17;10.03;;;;;;;;;;5091191;28;20343;-81
2023/02/05 06:46:19;;;;;;;16.47;10.20;;;;;;;;;;5091398;28;20322;-81
2023/02/05 06:48:47;;;;;;;18.20;11.67;;;;;;;;;;5091353;28;20294;-81
2023/02/05 06:51:14;;;;;;;18.90;10.37;;;;;;;;;;5091122;28;20285;-80
2023/02/05 06:53:42;;;;;;;15.97;10.20;;;;;;;;;;5091411;28;20278;-81
2023/02/05 06:56:09;;;;;;;15.47;9.93;;;;;;;;;;5091650;28;20217;-79
2023/02/05 06:58:38;;;;;;;17.50;10.33;;;;;;;;;;5091082;28;20226;-79
2023/02/05 07:01:05;;;;;;;18.17;9.83;;;;;;;;;;5091330;28;20278;-79
2023/02/05 07:03:32;;;;;;;16.40;9.97;;;;;;;;;;5090847;28;20258;-79
2023/02/05 07:06:02;;;;;;;13.83;9.53;;;;;;;;;;5091502;28;20261;-79
2023/02/05 07:08:29;;;;;;;17.60;9.13;;;;;;;;;;5091436;28;20233;-80
2023/02/05 07:10:56;;;;;;;18.00;10.60;;;;;;;;;;5091050;28;20277;-79
2023/02/05 07:13:24;;;;;;;16.47;10.03;;;;;;;;;;5091260;28;20291;-80
2023/02/05 07:15:52;;;;;;;15.40;9.60;;;;;;;;;;5091028;28;20281;-80
2023/02/05 07:18:19;;;;;;;17.63;9.80;;;;;;;;;;5090523;28;20245;-80
2023/02/05 07:20:47;;;;;;;17.17;9.60;;;;;;;;;;5090961;28;20232;-79
2023/02/05 07:23:14;;;;;;;16.90;10.03;;;;;;;;;;5091077;28;20263;-80
2023/02/05 07:25:41;;;;;;;16.20;9.50;;;;;;;;;;5091054;28;20274;-80
2023/02/05 07:28:09;;;;;;;13.30;9.50;;;;;;;;;;5090975;28;20671;-80
2023/02/05 07:30:36;;;;;;;17.10;9.77;;;;;;;;;;5090692;28;20203;-80
2023/02/05 07:33:05;;;;;;;16.30;9.47;;;;;;;;;;5090809;28;20226;-80
2023/02/05 07:35:33;;;;;;;15.67;10.17;;;;;;;;;;5091001;28;20234;-81
2023/02/05 07:38:01;;;;;;;15.03;9.30;;;;;;;;;;5090882;28;20201;-80
2023/02/05 07:40:28;;;;;;;14.00;9.50;;;;;;;;;;5090916;28;20226;-80
2023/02/05 07:42:55;;;;;;;15.80;10.10;;;;;;;;;;5090194;28;20238;-80
2023/02/05 07:45:22;;;;;;;18.97;10.43;;;;;;;;;;5090656;28;20242;-79
2023/02/05 07:47:50;;;;;;;14.80;10.03;;;;;;;;;;5090838;28;20281;-79
2023/02/05 07:50:18;;;;;;;16.17;10.00;;;;;;;;;;5090753;28;20201;-80
2023/02/05 07:52:46;;;;;;;17.13;9.97;;;;;;;;;;5090867;28;20274;-80
2023/02/05 07:55:13;;;;;;;17.77;10.17;;;;;;;;;;5090351;28;20306;-79
2023/02/05 07:57:40;;;;;;;16.37;9.87;;;;;;;;;;5090822;28;20227;-80
2023/02/05 08:00:08;;;;;;;16.63;10.23;;;;;;;;;;5090305;28;20192;-80
2023/02/05 08:02:35;;;;;;;15.23;10.03;;;;;;;;;;5090501;28;20208;-78
2023/02/05 08:05:03;;;;;;;17.23;10.13;;;;;;;;;;5094451;28;20228;-80
2023/02/05 08:07:31;;;;;;;14.67;9.50;;;;;;;;;;5094011;28;20257;-80
2023/02/05 08:09:58;;;;;;;16.40;9.87;;;;;;;;;;5094265;28;20229;-80
2023/02/05 08:12:26;;;;;;;17.03;10.13;;;;;;;;;;5093841;28;20252;-80
2023/02/05 08:14:53;;;;;;;19.80;11.47;;;;;;;;;;5093731;28;20631;-80
2023/02/05 08:17:20;;;;;;;17.77;10.57;;;;;;;;;;5094695;28;20201;-80
2023/02/05 08:19:48;;;;;;;16.10;10.30;;;;;;;;;;5094295;28;20234;-80
2023/02/05 08:22:15;;;;;;;19.17;11.70;;;;;;;;;;5094359;28;20719;-80
2023/02/05 08:24:43;;;;;;;15.10;11.17;;;;;;;;;;5094208;28;20231;-80
2023/02/05 08:27:11;;;;;;;17.80;9.37;;;;;;;;;;5093893;28;20332;-80
2023/02/05 08:29:38;;;;;;;29.47;20.13;;;;;;;;;;5093701;28;20221;-81
2023/02/05 08:32:05;;;;;;;19.87;12.87;;;;;;;;;;5093676;28;20246;-80
2023/02/05 08:34:33;;;;;;;19.20;10.60;;;;;;;;;;5093518;28;20738;-79
2023/02/05 08:37:00;;;;;;;17.10;11.07;;;;;;;;;;5093960;28;20205;-80
2023/02/05 08:39:27;;;;;;;13.10;9.40;;;;;;;;;;5093881;28;20614;-79
2023/02/05 08:41:56;;;;;;;18.03;10.30;;;;;;;;;;5084727;28;20295;-79
2023/02/05 08:44:23;;;;;;;17.20;12.90;;;;;;;;;;5091926;28;20287;-78
2023/02/05 08:46:50;;;;;;;18.83;12.10;;;;;;;;;;5093383;28;20258;-79
2023/02/05 08:49:17;;;;;;;25.50;19.70;;;;;;;;;;5093416;28;20281;-80
2023/02/05 08:51:44;;;;;;;31.57;26.13;;;;;;;;;;5093475;28;20290;-79
2023/02/05 08:54:12;;;;;;;20.73;11.10;;;;;;;;;;5093426;28;20282;-80
2023/02/05 08:56:39;;;;;;;19.00;9.87;;;;;;;;;;5093437;28;20970;-80
2023/02/05 08:59:09;;;;;;;18.17;10.20;;;;;;;;;;5093117;28;20235;-80
2023/02/05 09:01:39;;;;;;;19.00;12.23;;;;;;;;;;5093217;28;20208;-79
2023/02/05 09:04:06;;;;;;;21.13;16.57;;;;;;;;;;5093284;28;20198;-79
2023/02/05 09:06:34;;;;;;;26.93;20.57;;;;;;;;;;5092984;28;20634;-80
2023/02/05 09:09:01;;;;;;;26.13;15.43;;;;;;;;;;5091973;28;20222;-79
2023/02/05 09:11:29;;;;;;;25.77;18.97;;;;;;;;;;5091798;28;20707;-78
2023/02/05 09:13:57;;;;;;;24.63;16.67;;;;;;;;;;5090965;28;20586;-80
2023/02/05 09:16:26;;;;;;;30.87;18.90;;;;;;;;;;5089102;28;20670;-81
2023/02/05 09:18:54;;;;;;;23.90;15.93;;;;;;;;;;5091544;28;20276;-80
2023/02/05 09:21:22;;;;;;;23.40;13.87;;;;;;;;;;5092339;28;20290;-82
2023/02/05 09:23:49;;;;;;;21.07;12.17;;;;;;;;;;5092296;28;20202;-80
2023/02/05 09:26:16;;;;;;;19.63;12.80;;;;;;;;;;5091134;28;20313;-81
2023/02/05 09:28:44;;;;;;;16.97;11.63;;;;;;;;;;5091247;28;20244;-80
2023/02/05 09:31:13;;;;;;;22.90;10.87;;;;;;;;;;5091175;28;20745;-82
2023/02/05 09:33:42;;;;;;;25.37;12.33;;;;;;;;;;5091826;28;20289;-80
2023/02/05 09:36:10;;;;;;;20.77;12.27;;;;;;;;;;5092123;28;20230;-79
2023/02/05 09:38:37;;;;;;;23.30;11.07;;;;;;;;;;5092310;28;20197;-80
2023/02/05 09:41:08;;;;;;;23.40;12.03;;;;;;;;;;5092326;28;20236;-80
2023/02/05 09:43:48;;;;;;;20.63;11.03;;;;;;;;;;5092422;28;20277;-80
2023/02/05 09:46:19;;;;;;;15.67;9.77;;;;;;;;;;5092151;28;20393;-77
2023/02/05 09:48:49;;;;;;;22.53;14.30;;;;;;;;;;5091735;28;20289;-80
2023/02/05 09:51:23;;;;;;;21.20;11.13;;;;;;;;;;5092521;28;20618;-81
2023/02/05 09:53:55;;;;;;;18.93;10.83;;;;;;;;;;5091917;28;20285;-79
2023/02/05 09:56:22;;;;;;;17.83;10.00;;;;;;;;;;5091720;28;20222;-79
2023/02/05 09:58:50;;;;;;;16.60;9.10;;;;;;;;;;5092084;28;20259;-76
2023/02/05 10:01:21;;;;;;;15.80;9.77;;;;;;;;;;5086332;28;20860;-77
2023/02/05 10:03:52;;;;;;;17.93;9.37;;;;;;;;;;5087238;28;20211;-77
2023/02/05 10:06:34;;;;;;;17.47;9.57;;;;;;;;;;5091821;28;20202;-78
2023/02/05 10:09:06;;;;;;;18.20;10.80;;;;;;;;;;5077162;28;20926;-78
2023/02/05 10:11:37;;;;;;;22.27;14.87;;;;;;;;;;5089915;28;20285;-79
2023/02/05 10:14:09;;;;;;;15.47;10.77;;;;;;;;;;5090704;28;20198;-78
2023/02/05 10:16:47;;;;;;;14.13;9.67;;;;;;;;;;5089856;28;20233;-78
2023/02/05 10:19:33;;;;;;;15.43;8.73;;;;;;;;;;5086005;28;20233;-80
2023/02/05 10:22:10;;;;;;;12.23;8.77;;;;;;;;;;5078938;28;20289;-79
2023/02/05 10:24:53;;;;;;;15.47;8.53;;;;;;;;;;5085737;28;20213;-79
2023/02/05 10:27:22;;;;;;;11.97;7.50;;;;;;;;;;5087650;28;20225;-79
2023/02/05 10:29:53;;;;;;;12.67;7.50;;;;;;;;;;5088714;28;20299;-80
2023/02/05 10:32:22;;;;;;;10.40;7.23;;;;;;;;;;5087086;28;20677;-79
2023/02/05 10:34:58;;;;;;;11.50;7.13;;;;;;;;;;5089500;28;20199;-78
2023/02/05 10:37:32;;;;;;;12.27;7.00;;;;;;;;;;5089445;28;20614;-79
2023/02/05 10:39:59;;;;;;;9.77;5.60;;;;;;;;;;5087731;28;20220;-79
2023/02/05 10:42:29;;;;;;;8.60;5.73;;;;;;;;;;5090767;28;20277;-78
2023/02/05 10:45:00;;;;;;;10.80;5.57;;;;;;;;;;5088913;28;20663;-79
2023/02/05 10:47:36;;;;;;;9.87;6.10;;;;;;;;;;5089548;28;20226;-79
2023/02/05 10:50:06;;;;;;;10.43;5.70;;;;;;;;;;5087425;28;20221;-79
2023/02/05 10:52:34;;;;;;;9.23;5.67;;;;;;;;;;5089915;28;20239;-79
2023/02/05 10:55:02;;;;;;;10.50;6.83;;;;;;;;;;5089866;28;20255;-80
2023/02/05 10:57:31;;;;;;;7.03;4.97;;;;;;;;;;5090599;28;20285;-79
2023/02/05 11:00:00;;;;;;;8.27;5.07;;;;;;;;;;5087292;28;20288;-80
2023/02/05 11:02:29;;;;;;;8.53;5.30;;;;;;;;;;5082005;28;20223;-82
2023/02/05 11:04:58;;;;;;;7.07;5.20;;;;;;;;;;5082653;28;20305;-79
2023/02/05 11:07:29;;;;;;;7.60;4.67;;;;;;;;;;5091057;28;20316;-82
2023/02/05 11:09:58;;;;;;;6.93;4.90;;;;;;;;;;5090670;28;20196;-82
2023/02/05 11:12:28;;;;;;;7.33;5.37;;;;;;;;;;5089903;28;20198;-81
2023/02/05 11:14:57;;;;;;;22.80;12.57;;;;;;;;;;5089194;28;20222;-83
2023/02/05 11:17:31;;;;;;;34.47;18.30;;;;;;;;;;5084002;28;20289;-80
2023/02/05 11:20:00;;;;;;;30.20;15.70;;;;;;;;;;5089689;28;20197;-79
2023/02/05 11:22:29;;;;;;;234.50;103.30;;;;;;;;;;5090725;28;20823;-81
2023/02/05 11:25:06;;;;;;;159.40;62.50;;;;;;;;;;5089362;28;20210;-78
2023/02/05 11:27:34;;;;;;;106.43;56.97;;;;;;;;;;5090613;28;20234;-80
2023/02/05 11:30:17;;;;;;;41.00;29.57;;;;;;;;;;5089785;28;20285;-82
2023/02/05 11:32:44;;;;;;;69.70;50.97;;;;;;;;;;5080229;28;20301;-80
2023/02/05 11:35:20;;;;;;;43.43;31.10;;;;;;;;;;5090655;28;20222;-77
2023/02/05 11:37:48;;;;;;;65.73;48.00;;;;;;;;;;5092549;28;20226;-79
2023/02/05 11:40:22;;;;;;;47.10;33.53;;;;;;;;;;5094515;28;20222;-77
2023/02/05 11:42:54;;;;;;;90.10;58.77;;;;;;;;;;5092068;28;20225;-77
2023/02/05 11:45:24;;;;;;;16.87;15.27;;;;;;;;;;5078266;28;20238;-78
2023/02/05 11:47:51;;;;;;;22.47;18.03;;;;;;;;;;5076809;28;20248;-79
2023/02/05 11:50:22;;;;;;;41.77;30.90;;;;;;;;;;5082018;28;20231;-78
2023/02/05 11:52:49;;;;;;;62.57;54.73;;;;;;;;;;5087152;28;20195;-78
2023/02/05 11:55:27;;;;;;;103.77;67.67;;;;;;;;;;5086205;28;20199;-80
2023/02/05 11:57:58;;;;;;;94.83;55.60;;;;;;;;;;5074509;28;20199;-79
2023/02/05 12:00:26;;;;;;;14.93;13.27;;;;;;;;;;5079651;28;20590;-80
2023/02/05 12:03:03;;;;;;;7.43;6.57;;;;;;;;;;5093776;28;20195;-77
2023/02/05 12:05:32;;;;;;;22.97;19.20;;;;;;;;;;5091704;28;20218;-79
2023/02/05 12:08:00;;;;;;;23.63;21.20;;;;;;;;;;5092596;28;20321;-77
2023/02/05 12:10:33;;;;;;;58.80;46.27;;;;;;;;;;5092888;28;20286;-79
2023/02/05 12:13:07;;;;;;;26.10;23.40;;;;;;;;;;5092398;28;20198;-78
2023/02/05 12:15:37;;;;;;;10.70;9.63;;;;;;;;;;5088066;28;20835;-80
2023/02/05 12:18:10;;;;;;;8.73;7.23;;;;;;;;;;5076298;28;20297;-80
2023/02/05 12:20:39;;;;;;;16.80;14.40;;;;;;;;;;5093324;28;20218;-80
2023/02/05 12:23:23;;;;;;;7.00;3.90;;;;;;;;;;5113490;28;20651;-79
2023/02/05 12:25:58;;;;;;;19.60;13.87;;;;;;;;;;5095873;28;20226;-79
2023/02/05 12:28:31;;;;;;;8.57;4.73;;;;;;;;;;5092458;28;20245;-79
2023/02/05 12:31:02;;;;;;;15.77;9.17;;;;;;;;;;5093367;28;20198;-79
2023/02/05 12:33:45;;;;;;;14.30;9.33;;;;;;;;;;5093688;28;20194;-80
2023/02/05 12:36:21;;;;;;;22.33;17.57;;;;;;;;;;5091771;28;20198;-79
2023/02/05 12:38:54;;;;;;;5.73;4.30;;;;;;;;;;5093160;28;20293;-80
2023/02/05 12:41:27;;;;;;;6.33;2.60;;;;;;;;;;5087286;28;20270;-80
2023/02/05 12:43:57;;;;;;;4.53;2.70;;;;;;;;;;5081415;28;20238;-80
2023/02/05 12:46:42;;;;;;;7.87;2.50;;;;;;;;;;5073695;28;20285;-80
2023/02/05 12:49:19;;;;;;;11.53;10.03;;;;;;;;;;5065109;28;20250;-80
2023/02/05 12:52:01;;;;;;;9.67;5.87;;;;;;;;;;5072916;28;20286;-78
2023/02/05 12:54:41;;;;;;;4.97;3.90;;;;;;;;;;5072932;28;20290;-78
2023/02/05 12:57:11;;;;;;;6.57;3.90;;;;;;;;;;5092991;28;20251;-79
2023/02/05 12:59:41;;;;;;;5.60;3.70;;;;;;;;;;5092777;28;20187;-77
2023/02/05 13:02:16;;;;;;;6.47;3.60;;;;;;;;;;5087249;28;20919;-77
2023/02/05 13:04:44;;;;;;;6.37;4.20;;;;;;;;;;5091990;28;20255;-78
2023/02/05 13:07:12;;;;;;;6.83;3.17;;;;;;;;;;5089143;28;20195;-78
2023/02/05 13:09:47;;;;;;;3.80;2.30;;;;;;;;;;5090021;28;20299;-79
2023/02/05 13:12:17;;;;;;;3.30;2.10;;;;;;;;;;5090965;28;20193;-79
2023/02/05 13:14:45;;;;;;;3.67;1.70;;;;;;;;;;5092591;28;20195;-79
2023/02/05 13:17:15;;;;;;;5.40;1.70;;;;;;;;;;5089305;28;20308;-79
2023/02/05 13:19:44;;;;;;;2.93;1.70;;;;;;;;;;5091777;28;20186;-79
2023/02/05 13:30:52;;;;;;;3.60;2.10;;;;;;;;;;5028096;28;20301;-76
2023/02/05 13:33:19;;;;;;;3.43;2.37;;;;;;;;;;5027908;28;20319;-77
2023/02/05 13:35:52;;;;;;;4.87;3.57;;;;;;;;;;5029780;28;20346;-76
2023/02/05 13:38:40;;;;;;;6.37;2.70;;;;;;;;;;5028387;28;20275;-75
2023/02/05 13:41:21;;;;;;;5.53;2.50;;;;;;;;;;5020750;28;20266;-74
2023/02/05 13:44:09;;;;;;;5.50;4.20;;;;;;;;;;5028887;28;20324;-74
2023/02/05 13:46:54;;;;;;;5.27;4.73;;;;;;;;;;5020929;28;20318;-75
2023/02/05 13:49:47;;;;;;;5.73;3.63;;;;;;;;;;5028371;28;20316;-75
2023/02/05 13:52:35;;;;;;;6.80;5.20;;;;;;;;;;5027889;28;20227;-76
2023/02/05 13:55:14;;;;;;;2.83;2.37;;;;;;;;;;5028629;28;20224;-78
2023/02/05 13:57:56;;;;;;;3.33;2.50;;;;;;;;;;5028583;28;20762;-77
2023/02/05 14:00:26;;;;;;;3.17;2.10;;;;;;;;;;5090805;28;20210;-76
2023/02/05 14:02:56;;;;;;;8.73;7.37;;;;;;;;;;5091120;28;20202;-75
2023/02/05 14:05:28;;;;;;;10.80;9.67;;;;;;;;;;5090985;28;20218;-77
2023/02/05 14:08:00;;;;;;;5.57;4.07;;;;;;;;;;5090906;28;20748;-76
2023/02/05 14:10:28;;;;;;;7.07;4.70;;;;;;;;;;5091211;28;20318;-76
2023/02/05 14:13:09;;;;;;;7.50;6.63;;;;;;;;;;5090166;28;20266;-77
2023/02/05 14:15:37;;;;;;;12.30;8.23;;;;;;;;;;5090318;28;20674;-77
2023/02/05 14:18:13;;;;;;;8.37;6.27;;;;;;;;;;5089079;28;20285;-77
2023/02/05 14:20:44;;;;;;;6.30;5.67;;;;;;;;;;5087478;28;20277;-79
2023/02/05 14:23:16;;;;;;;5.53;4.73;;;;;;;;;;5091317;28;20198;-76
2023/02/05 14:26:01;;;;;;;7.97;5.77;;;;;;;;;;5090610;28;20222;-76
2023/02/05 14:28:35;;;;;;;5.43;3.47;;;;;;;;;;5076618;28;20296;-76
2023/02/05 14:31:06;;;;;;;12.87;9.60;;;;;;;;;;5090543;28;20186;-75
2023/02/05 14:33:43;;;;;;;7.30;4.80;;;;;;;;;;5091235;28;20232;-76
2023/02/05 14:36:38;;;;;;;12.13;8.17;;;;;;;;;;5086439;28;20319;-75
2023/02/05 14:39:07;;;;;;;9.47;6.33;;;;;;;;;;5049559;28;20227;-78
2023/02/05 14:41:49;;;;;;;4.03;3.60;;;;;;;;;;5050038;28;20193;-77
2023/02/05 14:44:18;;;;;;;6.27;3.40;;;;;;;;;;5046921;28;20725;-73
2023/02/05 14:46:54;;;;;;;4.67;2.60;;;;;;;;;;5047586;28;20275;-75
2023/02/05 14:49:24;;;;;;;3.97;1.87;;;;;;;;;;5045625;28;20317;-75
2023/02/05 14:51:53;;;;;;;4.47;2.13;;;;;;;;;;5047536;28;20734;-76
2023/02/05 14:54:22;;;;;;;3.97;2.20;;;;;;;;;;5051408;28;20207;-76